Villa Graciela, Puerto Rico
Current Conditions -  °F | °C
As of 11:56 PM on Friday 19 Dec 2014 (Local Time) from TJSJ Reporting Station
Few Clouds Few Clouds  
Wind Chill: 77°   Ceiling: Unl
Heat Index: 79°   Visibility: 10mi
Dew Point: 69°   Wind: 6mph
Humidity: 76%   Direction: 90°E
Pressure: 30.01"   Gusts: NA
Location:  18.2339°N, 65.9218°W
Report Text: TJSJ 200356Z 09005KT 10SM FEW030 25/21 A3001 RMK AO2 SLP161 T02500206 402940228
Loading
Personal Weather Stations






























Interactive Weather Map New forecast layout! Learn more

10-Day Weather Forecast

Advertisements
Track Severe Weather on mobile